Time;durP1;ratioP1;P1;durP2;ratioP2;P2;SDS_P1;SDS_P2;PMS_P1;PMS_P2;Temp;Humidity;BMP_temperature;BMP_pressure;BME280_temperature;BME280_humidity;BME280_pressure;Samples;Min_cycle;Max_cycle;Signal;HPM_P1;HPM_P2
2023/03/26 00:01:18;;;;;;;18.23;7.93;;;9.00;99.90;;;;;;5095112;28;20555;-70
2023/03/26 00:03:45;;;;;;;15.70;8.10;;;9.00;99.90;;;;;;5096475;28;20523;-70
2023/03/26 00:06:14;;;;;;;18.53;7.77;;;8.90;99.90;;;;;;5090766;28;20561;-70
2023/03/26 00:08:43;;;;;;;25.47;7.70;;;9.00;99.90;;;;;;5091727;28;20473;-71
2023/03/26 00:11:13;;;;;;;27.33;8.60;;;8.90;99.90;;;;;;5092105;28;20466;-70
2023/03/26 00:13:42;;;;;;;27.60;8.83;;;8.80;99.90;;;;;;5093996;28;20937;-70
2023/03/26 00:16:12;;;;;;;20.53;8.53;;;8.80;99.90;;;;;;5095123;28;20841;-69
2023/03/26 00:18:41;;;;;;;30.47;8.00;;;8.60;99.90;;;;;;5093750;28;20555;-69
2023/03/26 00:21:09;;;;;;;25.73;8.27;;;8.50;99.90;;;;;;5093065;28;20808;-69
2023/03/26 00:23:37;;;;;;;23.47;8.80;;;8.50;99.90;;;;;;5091149;28;20480;-70
2023/03/26 00:26:09;;;;;;;22.70;7.43;;;8.40;99.90;;;;;;5100483;28;20472;-70
2023/03/26 00:28:37;;;;;;;21.87;6.37;;;8.40;99.90;;;;;;5096496;28;20471;-70
2023/03/26 00:31:05;;;;;;;15.07;7.27;;;8.40;99.90;;;;;;5091846;28;21228;-69
2023/03/26 00:33:37;;;;;;;22.83;7.50;;;8.40;99.90;;;;;;5093620;28;20820;-69
2023/03/26 00:36:08;;;;;;;23.03;7.23;;;8.40;99.90;;;;;;5093971;28;20670;-71
2023/03/26 00:38:37;;;;;;;13.43;6.03;;;8.40;99.90;;;;;;5098157;28;21026;-70
2023/03/26 00:41:16;;;;;;;23.23;7.90;;;8.30;99.90;;;;;;5095768;28;20458;-71
2023/03/26 00:43:44;;;;;;;20.93;6.60;;;8.30;99.90;;;;;;5094162;28;21265;-69
2023/03/26 00:46:10;;;;;;;15.13;6.63;;;8.30;99.90;;;;;;5100043;28;20477;-69
2023/03/26 00:48:41;;;;;;;26.70;7.50;;;8.30;99.90;;;;;;5093797;28;20464;-70
2023/03/26 00:51:08;;;;;;;15.23;6.50;;;8.40;99.90;;;;;;5093021;28;20521;-70
2023/03/26 00:53:37;;;;;;;27.93;7.30;;;8.40;99.90;;;;;;5094112;28;20458;-71
2023/03/26 00:56:05;;;;;;;30.50;7.53;;;8.40;99.90;;;;;;5088711;28;20457;-71
2023/03/26 00:58:33;;;;;;;17.87;6.50;;;8.40;99.90;;;;;;5092810;28;20903;-70
2023/03/26 01:01:03;;;;;;;22.57;6.60;;;8.30;99.90;;;;;;5093404;28;20508;-70
2023/03/26 01:03:33;;;;;;;25.60;7.07;;;8.40;99.90;;;;;;5094492;28;20473;-71
2023/03/26 01:06:06;;;;;;;19.17;7.60;;;8.30;99.90;;;;;;5095209;28;20539;-70
2023/03/26 01:08:37;;;;;;;21.13;6.30;;;8.30;99.90;;;;;;5095626;28;20906;-70
2023/03/26 01:11:12;;;;;;;24.50;6.07;;;8.20;99.90;;;;;;5090741;28;20827;-70
2023/03/26 01:13:41;;;;;;;16.57;5.70;;;8.20;99.90;;;;;;5090988;28;20461;-70
2023/03/26 01:16:19;;;;;;;30.07;7.50;;;8.10;99.90;;;;;;5089451;28;20943;-70
2023/03/26 01:18:47;;;;;;;22.20;7.17;;;8.10;99.90;;;;;;5088861;28;20499;-71
2023/03/26 01:21:21;;;;;;;17.87;6.73;;;7.90;99.90;;;;;;5093472;28;20466;-70
2023/03/26 01:23:51;;;;;;;21.20;7.13;;;7.80;99.90;;;;;;5097431;28;20483;-70
2023/03/26 01:26:40;;;;;;;19.73;7.70;;;7.80;99.90;;;;;;5085997;28;20480;-70
2023/03/26 01:29:15;;;;;;;21.77;7.23;;;7.70;99.90;;;;;;5089254;28;20873;-71
2023/03/26 01:31:51;;;;;;;23.43;7.87;;;7.60;99.90;;;;;;5088336;28;20883;-71
2023/03/26 01:34:29;;;;;;;17.80;6.27;;;7.60;99.90;;;;;;5093361;28;20947;-69
2023/03/26 01:37:03;;;;;;;18.57;6.63;;;7.60;99.90;;;;;;5096974;28;20541;-70
2023/03/26 01:39:37;;;;;;;24.93;7.17;;;7.60;99.90;;;;;;5100099;28;20492;-70
2023/03/26 01:42:11;;;;;;;23.57;8.57;;;7.50;99.90;;;;;;5091452;28;20481;-70
2023/03/26 01:44:43;;;;;;;20.13;7.23;;;7.50;99.90;;;;;;5092606;28;20468;-70
2023/03/26 01:47:14;;;;;;;18.37;6.93;;;7.40;99.90;;;;;;5086247;28;20496;-71
2023/03/26 01:49:40;;;;;;;23.20;5.67;;;7.40;99.90;;;;;;5096926;28;21015;-71
2023/03/26 01:52:14;;;;;;;23.90;6.57;;;7.40;99.90;;;;;;5094810;28;20456;-70
2023/03/26 01:54:41;;;;;;;25.10;6.47;;;7.40;99.90;;;;;;5094533;28;20472;-70
2023/03/26 01:57:19;;;;;;;27.97;6.57;;;7.40;99.90;;;;;;5092392;28;20557;-71
2023/03/26 02:00:06;;;;;;;15.50;6.17;;;7.50;99.90;;;;;;5095074;28;21008;-70
2023/03/26 02:02:40;;;;;;;15.37;5.10;;;7.50;99.90;;;;;;5090100;28;20485;-70
2023/03/26 02:05:14;;;;;;;19.00;6.10;;;7.50;99.90;;;;;;5090876;28;20470;-70
2023/03/26 02:07:46;;;;;;;21.23;5.73;;;7.40;99.90;;;;;;5084690;28;20498;-70
2023/03/26 02:10:17;;;;;;;22.43;5.90;;;7.50;99.90;;;;;;5092533;28;20449;-71
2023/03/26 02:12:45;;;;;;;13.23;6.03;;;7.40;99.90;;;;;;5089812;28;20518;-71
2023/03/26 02:15:13;;;;;;;13.17;5.90;;;7.50;99.90;;;;;;5089604;28;21010;-70
2023/03/26 02:17:40;;;;;;;14.50;5.70;;;7.50;99.90;;;;;;5091326;28;20972;-70
2023/03/26 02:20:09;;;;;;;22.10;6.73;;;7.50;99.90;;;;;;5093257;28;20510;-70
2023/03/26 02:22:39;;;;;;;16.57;5.90;;;7.50;99.90;;;;;;5086538;28;20516;-70
2023/03/26 02:25:09;;;;;;;21.30;6.10;;;7.60;99.90;;;;;;5093009;28;20837;-70
2023/03/26 02:27:36;;;;;;;17.43;7.20;;;7.60;99.90;;;;;;5099137;28;21006;-71
2023/03/26 02:30:06;;;;;;;13.90;5.80;;;7.60;99.90;;;;;;5092540;28;20485;-70
2023/03/26 02:32:33;;;;;;;19.03;6.20;;;7.70;99.90;;;;;;5087679;28;20854;-71
2023/03/26 02:35:00;;;;;;;7.70;5.43;;;7.70;99.90;;;;;;5086808;28;20470;-71
2023/03/26 02:37:29;;;;;;;18.47;6.60;;;7.80;99.90;;;;;;5095494;28;20896;-70
2023/03/26 02:39:56;;;;;;;12.90;5.53;;;7.80;99.90;;;;;;5097723;28;20890;-70
2023/03/26 02:42:22;;;;;;;10.50;6.20;;;7.90;99.90;;;;;;5088494;28;20564;-70
2023/03/26 02:44:49;;;;;;;20.23;6.20;;;8.00;99.90;;;;;;5090604;28;20528;-71
2023/03/26 02:47:18;;;;;;;19.27;6.20;;;8.00;99.90;;;;;;5088991;28;20481;-71
2023/03/26 02:49:45;;;;;;;17.63;6.03;;;8.10;99.90;;;;;;5092375;28;20495;-71
2023/03/26 02:52:15;;;;;;;15.47;6.63;;;8.10;99.90;;;;;;5098463;28;20886;-69
2023/03/26 02:54:43;;;;;;;17.17;6.07;;;8.20;99.90;;;;;;5096307;28;20472;-71
2023/03/26 02:57:10;;;;;;;16.17;6.10;;;8.30;99.90;;;;;;5094412;28;20767;-69
2023/03/26 02:59:37;;;;;;;16.07;6.00;;;8.30;99.90;;;;;;5089087;28;20555;-70
2023/03/26 03:02:04;;;;;;;27.10;9.63;;;8.40;99.90;;;;;;5093442;28;20465;-70
2023/03/26 03:04:33;;;;;;;8.13;5.50;;;8.40;99.90;;;;;;5096066;28;21031;-71
2023/03/26 03:07:00;;;;;;;15.13;6.50;;;8.40;99.90;;;;;;5090772;28;20968;-71
2023/03/26 03:09:27;;;;;;;11.93;6.13;;;8.40;99.90;;;;;;5094272;28;20472;-70
2023/03/26 03:11:54;;;;;;;19.00;7.20;;;8.40;99.90;;;;;;5094442;28;20457;-71
2023/03/26 03:14:21;;;;;;;10.67;5.83;;;8.30;99.90;;;;;;5089514;28;20520;-71
2023/03/26 03:16:47;;;;;;;16.63;6.57;;;8.30;99.90;;;;;;5091258;28;20462;-71
2023/03/26 03:19:14;;;;;;;17.43;6.60;;;8.30;99.90;;;;;;5099594;28;20453;-70
2023/03/26 03:21:43;;;;;;;15.40;6.40;;;8.30;99.90;;;;;;5093911;28;20465;-71
2023/03/26 03:24:12;;;;;;;16.97;6.07;;;8.30;99.90;;;;;;5092317;28;21066;-71
2023/03/26 03:26:40;;;;;;;11.90;6.93;;;8.40;99.90;;;;;;5096616;28;20554;-70
2023/03/26 03:29:06;;;;;;;15.77;8.23;;;8.40;99.90;;;;;;5091655;28;20967;-70
2023/03/26 03:31:33;;;;;;;14.40;7.90;;;8.40;99.90;;;;;;5089390;28;20469;-70
2023/03/26 03:34:00;;;;;;;12.53;7.63;;;8.40;99.90;;;;;;5088634;28;20594;-69
2023/03/26 03:36:29;;;;;;;8.83;7.97;;;8.50;99.90;;;;;;5093965;28;20550;-69
2023/03/26 03:39:01;;;;;;;26.53;9.67;;;8.40;99.90;;;;;;5097797;28;20738;-69
2023/03/26 03:41:28;;;;;;;15.67;10.10;;;8.40;99.90;;;;;;5097020;28;20913;-69
2023/03/26 03:43:55;;;;;;;16.17;11.40;;;8.40;99.90;;;;;;5089739;28;20623;-69
2023/03/26 03:46:22;;;;;;;15.80;12.30;;;8.40;99.90;;;;;;5090954;28;20468;-68
2023/03/26 03:48:48;;;;;;;16.60;13.73;;;8.40;99.90;;;;;;5093507;28;20497;-69
2023/03/26 03:51:16;;;;;;;19.40;17.33;;;8.20;99.90;;;;;;5092442;28;20457;-69
2023/03/26 03:53:44;;;;;;;19.70;17.80;;;8.20;99.90;;;;;;5092182;28;20473;-69
2023/03/26 03:56:16;;;;;;;20.30;18.27;;;8.30;99.90;;;;;;5087997;28;20698;-68
2023/03/26 03:58:44;;;;;;;20.47;18.57;;;8.30;99.90;;;;;;5097451;28;20465;-69
2023/03/26 04:01:12;;;;;;;19.70;18.10;;;8.20;99.90;;;;;;5100818;28;20990;-69
2023/03/26 04:03:39;;;;;;;20.27;18.27;;;8.20;99.90;;;;;;5092626;28;20458;-69
2023/03/26 04:06:06;;;;;;;20.53;18.50;;;8.20;99.90;;;;;;5092151;28;20462;-69
2023/03/26 04:08:33;;;;;;;19.63;17.87;;;8.20;99.90;;;;;;5096291;28;20498;-70
2023/03/26 04:11:00;;;;;;;18.90;17.33;;;8.20;99.90;;;;;;5089571;28;20967;-69
2023/03/26 04:13:28;;;;;;;21.07;19.17;;;8.10;99.90;;;;;;5091296;28;20461;-70
2023/03/26 04:15:56;;;;;;;20.33;18.30;;;8.10;99.90;;;;;;5088841;28;20971;-69
2023/03/26 04:18:23;;;;;;;20.93;19.13;;;8.00;99.90;;;;;;5097038;28;20465;-70
2023/03/26 04:20:50;;;;;;;20.80;18.97;;;8.00;99.90;;;;;;5090922;28;20732;-69
2023/03/26 04:23:19;;;;;;;21.13;19.10;;;7.90;99.90;;;;;;5098530;28;21003;-69
2023/03/26 04:25:52;;;;;;;22.00;19.87;;;7.90;99.90;;;;;;5094547;28;20466;-70
2023/03/26 04:28:27;;;;;;;27.63;20.43;;;7.80;99.90;;;;;;5094733;28;20503;-70
2023/03/26 04:30:59;;;;;;;22.03;19.80;;;7.70;99.90;;;;;;5094887;28;20488;-69
2023/03/26 04:33:27;;;;;;;21.50;19.50;;;7.70;99.90;;;;;;5093725;28;20590;-71
2023/03/26 04:35:55;;;;;;;22.50;20.10;;;7.70;99.90;;;;;;5091808;28;20676;-70
2023/03/26 04:38:22;;;;;;;22.23;20.13;;;7.70;99.90;;;;;;5094898;28;20511;-70
2023/03/26 04:40:49;;;;;;;21.30;19.10;;;7.60;99.90;;;;;;5087972;28;20467;-70
2023/03/26 04:43:17;;;;;;;20.77;18.77;;;7.60;99.90;;;;;;5095253;28;20477;-70
2023/03/26 04:45:46;;;;;;;22.43;20.23;;;7.50;99.90;;;;;;5086780;28;20515;-70
2023/03/26 04:48:15;;;;;;;25.13;19.00;;;7.50;99.90;;;;;;5090639;28;20496;-70
2023/03/26 04:50:44;;;;;;;21.03;18.13;;;7.50;99.90;;;;;;5090017;28;20690;-70
2023/03/26 04:53:14;;;;;;;22.97;20.53;;;7.50;99.90;;;;;;5092085;28;20480;-69
2023/03/26 04:55:45;;;;;;;28.53;19.20;;;7.60;99.90;;;;;;5091061;28;20500;-69
2023/03/26 04:58:13;;;;;;;22.37;19.07;;;7.50;99.90;;;;;;5093186;28;20458;-70
2023/03/26 05:00:40;;;;;;;19.00;17.10;;;7.50;99.90;;;;;;5088941;28;20466;-70
2023/03/26 05:03:10;;;;;;;22.43;17.90;;;7.60;99.90;;;;;;5090455;28;20805;-71
2023/03/26 05:05:39;;;;;;;18.90;17.20;;;7.60;99.90;;;;;;5095084;28;21015;-70
2023/03/26 05:08:06;;;;;;;18.83;16.80;;;7.60;99.90;;;;;;5099574;28;20923;-71
2023/03/26 05:10:33;;;;;;;19.23;16.57;;;7.60;99.90;;;;;;5091364;28;20808;-69
2023/03/26 05:13:00;;;;;;;36.80;17.93;;;7.60;99.90;;;;;;5094163;28;20834;-70
2023/03/26 05:15:27;;;;;;;20.63;18.60;;;7.60;99.90;;;;;;5089087;28;20472;-69
2023/03/26 05:17:54;;;;;;;21.70;16.83;;;7.60;99.90;;;;;;5093040;28;20466;-69
2023/03/26 05:20:26;;;;;;;23.60;17.37;;;7.60;99.90;;;;;;5093577;28;20473;-70
2023/03/26 05:22:54;;;;;;;22.67;16.80;;;7.70;99.90;;;;;;5090090;28;20469;-69
2023/03/26 05:25:21;;;;;;;21.57;17.10;;;7.70;99.90;;;;;;5096201;28;20449;-69
2023/03/26 05:27:48;;;;;;;29.07;18.27;;;7.70;99.90;;;;;;5092672;28;21017;-69
2023/03/26 05:30:17;;;;;;;35.13;18.10;;;7.70;99.90;;;;;;5089600;28;20487;-69
2023/03/26 05:32:44;;;;;;;29.87;19.27;;;7.70;99.90;;;;;;5092138;28;21062;-70
2023/03/26 05:35:12;;;;;;;30.80;18.27;;;7.70;99.90;;;;;;5089181;28;20547;-70
2023/03/26 05:37:38;;;;;;;25.90;17.00;;;7.70;99.90;;;;;;5095763;28;20469;-70
2023/03/26 05:40:10;;;;;;;20.77;17.40;;;7.70;99.90;;;;;;5091510;28;20486;-69
2023/03/26 05:42:37;;;;;;;20.87;16.17;;;7.80;99.90;;;;;;5090261;28;20489;-69
2023/03/26 05:45:06;;;;;;;23.23;18.83;;;7.80;99.90;;;;;;5092532;28;20457;-69
2023/03/26 05:47:32;;;;;;;20.63;18.43;;;7.80;99.90;;;;;;5090954;28;20462;-70
2023/03/26 05:50:00;;;;;;;31.20;19.90;;;7.80;99.90;;;;;;5093769;28;20456;-70
2023/03/26 05:52:27;;;;;;;23.20;19.13;;;7.80;99.90;;;;;;5093846;28;20466;-70
2023/03/26 05:54:55;;;;;;;32.23;19.43;;;7.80;99.90;;;;;;5092055;28;20458;-69
2023/03/26 05:57:27;;;;;;;24.70;19.10;;;7.80;99.90;;;;;;5088056;28;20454;-70
2023/03/26 05:59:55;;;;;;;29.20;19.23;;;7.80;99.90;;;;;;5091273;28;20968;-70
2023/03/26 06:02:21;;;;;;;23.63;17.97;;;7.80;99.90;;;;;;5092608;28;20549;-69
2023/03/26 06:04:49;;;;;;;19.17;16.90;;;7.80;99.90;;;;;;5088258;28;20462;-71
2023/03/26 06:07:16;;;;;;;28.30;17.23;;;7.80;99.90;;;;;;5089455;28;20470;-69
2023/03/26 06:09:43;;;;;;;23.40;17.27;;;7.90;99.90;;;;;;5082392;28;20545;-69
2023/03/26 06:12:11;;;;;;;17.70;16.20;;;7.90;99.90;;;;;;5087521;28;20462;-71
2023/03/26 06:14:41;;;;;;;16.47;14.70;;;7.90;99.90;;;;;;5093551;28;20558;-70
2023/03/26 06:17:09;;;;;;;20.37;15.80;;;7.90;99.90;;;;;;5095899;28;20537;-71
2023/03/26 06:19:37;;;;;;;17.27;14.97;;;7.90;99.90;;;;;;5091290;28;20523;-72
2023/03/26 06:22:04;;;;;;;20.10;16.13;;;7.90;99.90;;;;;;5090874;28;20535;-71
2023/03/26 06:24:31;;;;;;;19.23;14.57;;;7.90;99.90;;;;;;5088993;28;20561;-70
2023/03/26 06:26:58;;;;;;;17.27;15.50;;;8.00;99.90;;;;;;5089344;28;20468;-71
2023/03/26 06:29:26;;;;;;;22.33;15.23;;;8.00;99.90;;;;;;5088732;28;20513;-71
2023/03/26 06:31:55;;;;;;;19.47;15.30;;;8.00;99.90;;;;;;5084883;28;21005;-72
2023/03/26 06:34:21;;;;;;;23.20;14.93;;;8.00;99.90;;;;;;5087956;28;20790;-71
2023/03/26 06:36:51;;;;;;;16.17;14.70;;;8.00;99.90;;;;;;5090408;28;20473;-72
2023/03/26 06:39:18;;;;;;;16.20;14.70;;;8.00;99.90;;;;;;5090573;28;20559;-71
2023/03/26 06:41:45;;;;;;;20.57;15.17;;;8.10;99.90;;;;;;5086733;28;20540;-72
2023/03/26 06:44:12;;;;;;;16.20;14.70;;;8.20;99.90;;;;;;5091897;28;20464;-70
2023/03/26 06:46:39;;;;;;;16.17;14.80;;;8.20;99.90;;;;;;5090093;28;20544;-71
2023/03/26 06:49:07;;;;;;;16.33;14.70;;;8.20;99.90;;;;;;5091656;28;20477;-72
2023/03/26 06:51:34;;;;;;;16.13;14.40;;;8.20;99.90;;;;;;5094007;28;20468;-72
2023/03/26 06:54:01;;;;;;;15.40;14.03;;;8.20;99.90;;;;;;5090197;28;20461;-72
2023/03/26 06:56:28;;;;;;;18.33;14.57;;;8.20;99.90;;;;;;5086590;28;20457;-72
2023/03/26 06:58:55;;;;;;;24.27;15.13;;;8.10;99.90;;;;;;5087238;28;20461;-72
2023/03/26 07:01:22;;;;;;;15.93;14.17;;;8.10;99.90;;;;;;5091435;28;20503;-72
2023/03/26 07:03:49;;;;;;;15.33;14.23;;;8.10;99.90;;;;;;5094256;28;20462;-71
2023/03/26 07:06:17;;;;;;;16.60;15.07;;;8.10;99.90;;;;;;5096643;28;20865;-71
2023/03/26 07:08:44;;;;;;;17.73;14.17;;;8.10;99.90;;;;;;5092495;28;20489;-70
2023/03/26 07:11:10;;;;;;;16.03;14.43;;;8.20;99.90;;;;;;5090049;28;20462;-70
2023/03/26 07:13:38;;;;;;;17.63;13.33;;;8.30;99.90;;;;;;5089035;28;20470;-71
2023/03/26 07:16:06;;;;;;;16.67;13.80;;;8.30;99.90;;;;;;5090634;28;20557;-72
2023/03/26 07:18:33;;;;;;;15.13;13.63;;;8.40;99.90;;;;;;5099079;28;20464;-71
2023/03/26 07:21:01;;;;;;;22.17;13.60;;;8.40;99.90;;;;;;5094560;28;20469;-71
2023/03/26 07:23:29;;;;;;;19.00;14.60;;;8.40;99.90;;;;;;5096019;28;20886;-72
2023/03/26 07:25:57;;;;;;;14.90;13.33;;;8.30;99.90;;;;;;5087514;28;20462;-72
2023/03/26 07:28:31;;;;;;;21.33;13.70;;;8.20;99.90;;;;;;5094986;28;20488;-71
2023/03/26 07:31:14;;;;;;;15.80;13.57;;;8.20;99.90;;;;;;5084895;28;20639;-70
2023/03/26 07:33:49;;;;;;;14.73;12.53;;;8.30;99.90;;;;;;5087904;28;21155;-72
2023/03/26 07:36:24;;;;;;;19.03;13.60;;;8.20;99.90;;;;;;5091357;28;20977;-70
2023/03/26 07:39:04;;;;;;;21.30;13.20;;;8.40;99.90;;;;;;5097160;28;20502;-71
2023/03/26 07:41:38;;;;;;;14.40;12.87;;;8.40;99.90;;;;;;5096954;28;20920;-72
2023/03/26 07:44:23;;;;;;;15.00;12.90;;;8.40;99.90;;;;;;5090497;28;20557;-71
2023/03/26 07:46:52;;;;;;;15.10;13.70;;;8.30;99.90;;;;;;5090521;28;20574;-70
2023/03/26 07:49:20;;;;;;;19.93;14.40;;;8.30;99.90;;;;;;5093624;28;20745;-70
2023/03/26 07:51:48;;;;;;;15.67;13.70;;;8.30;99.90;;;;;;5088987;28;20497;-72
2023/03/26 07:54:16;;;;;;;25.63;14.57;;;8.40;99.90;;;;;;5089146;28;20499;-71
2023/03/26 07:56:51;;;;;;;22.50;14.27;;;8.40;99.90;;;;;;5092988;28;20511;-72
2023/03/26 07:59:25;;;;;;;15.70;14.23;;;8.40;99.90;;;;;;5091350;28;20515;-71
2023/03/26 08:02:07;;;;;;;14.00;12.83;;;8.50;99.90;;;;;;5097029;28;20468;-72
2023/03/26 08:04:45;;;;;;;14.50;13.00;;;8.50;99.90;;;;;;5089368;28;20560;-72
2023/03/26 08:07:24;;;;;;;17.17;15.37;;;8.60;99.90;;;;;;5096419;28;20490;-70
2023/03/26 08:10:03;;;;;;;15.00;13.70;;;8.40;99.90;;;;;;5091308;28;20501;-71
2023/03/26 08:12:41;;;;;;;23.13;14.17;;;8.40;99.90;;;;;;5093587;28;20821;-72
2023/03/26 08:15:15;;;;;;;27.57;13.73;;;8.30;99.90;;;;;;5091317;28;20865;-71
2023/03/26 08:17:49;;;;;;;17.73;14.33;;;8.30;99.90;;;;;;5093106;28;20493;-69
2023/03/26 08:20:29;;;;;;;12.70;11.60;;;8.30;99.90;;;;;;5091817;28;20464;-72
2023/03/26 08:23:06;;;;;;;17.57;12.70;;;8.40;99.90;;;;;;5086637;28;20950;-71
2023/03/26 08:25:41;;;;;;;24.77;13.20;;;8.40;99.90;;;;;;5091125;28;20464;-72
2023/03/26 08:28:22;;;;;;;14.73;12.13;;;8.40;99.90;;;;;;5092347;28;20541;-71
2023/03/26 08:30:49;;;;;;;17.00;12.40;;;8.40;99.90;;;;;;5089608;28;20482;-73
2023/03/26 08:33:19;;;;;;;13.73;12.53;;;8.40;99.90;;;;;;5089046;28;20967;-71
2023/03/26 08:35:47;;;;;;;19.37;12.67;;;8.40;99.90;;;;;;5090171;28;20485;-72
2023/03/26 08:38:15;;;;;;;15.30;13.03;;;8.30;99.90;;;;;;5089154;28;20551;-72
2023/03/26 08:41:15;;;;;;;28.87;14.70;;;8.40;99.90;;;;;;5095125;28;20465;-73
2023/03/26 08:44:19;;;;;;;18.87;11.70;;;8.40;99.90;;;;;;5089149;28;20762;-73
2023/03/26 08:47:18;;;;;;;14.10;11.97;;;8.30;99.90;;;;;;5094319;28;20457;-73
2023/03/26 08:50:18;;;;;;;15.70;13.30;;;8.40;99.90;;;;;;5092405;28;20692;-74
2023/03/26 08:53:13;;;;;;;17.23;12.03;;;8.40;99.90;;;;;;5086182;28;20481;-73
2023/03/26 08:55:55;;;;;;;30.47;11.90;;;8.40;99.90;;;;;;5097244;28;20576;-74
2023/03/26 08:58:55;;;;;;;20.03;11.83;;;8.40;99.90;;;;;;5088554;28;20728;-73
2023/03/26 09:01:45;;;;;;;17.00;11.37;;;8.30;99.90;;;;;;5091331;28;20469;-74
2023/03/26 09:04:46;;;;;;;13.27;11.50;;;8.30;99.90;;;;;;5091361;28;20545;-73
2023/03/26 09:07:53;;;;;;;15.93;11.77;;;8.40;99.90;;;;;;5093192;28;20454;-72
2023/03/26 09:11:00;;;;;;;16.03;11.50;;;8.40;99.90;;;;;;5093510;28;20492;-73
2023/03/26 09:14:16;;;;;;;20.57;11.90;;;8.40;99.90;;;;;;5046047;28;21058;-74
2023/03/26 09:17:18;;;;;;;11.03;10.17;;;8.50;99.90;;;;;;5073447;28;20999;-73
2023/03/26 09:20:07;;;;;;;16.90;10.93;;;8.50;99.90;;;;;;5099917;28;20465;-73
2023/03/26 09:23:04;;;;;;;14.23;9.57;;;8.50;99.90;;;;;;5100450;28;20960;-73
2023/03/26 09:26:04;;;;;;;10.87;9.87;;;8.40;99.90;;;;;;5093976;28;20450;-72
2023/03/26 09:29:13;;;;;;;11.17;10.07;;;8.50;99.90;;;;;;5083144;28;20465;-73
2023/03/26 09:32:09;;;;;;;19.20;10.03;;;8.50;99.90;;;;;;5092743;28;20485;-73
2023/03/26 09:34:54;;;;;;;10.30;9.50;;;8.60;99.90;;;;;;5093371;28;20839;-73
2023/03/26 09:37:28;;;;;;;11.17;10.27;;;8.60;99.90;;;;;;5097081;28;20568;-73
2023/03/26 09:40:13;;;;;;;12.20;11.13;;;8.60;99.90;;;;;;5085934;28;20539;-73
2023/03/26 09:42:45;;;;;;;12.10;10.60;;;8.60;99.90;;;;;;5090767;28;20490;-72
2023/03/26 09:45:45;;;;;;;15.80;10.87;;;8.60;99.90;;;;;;5091935;28;20462;-73
2023/03/26 09:48:28;;;;;;;14.67;10.60;;;8.60;99.90;;;;;;5090545;28;20473;-72
2023/03/26 09:51:12;;;;;;;20.50;11.37;;;8.50;99.90;;;;;;5085782;28;20489;-72
2023/03/26 09:54:03;;;;;;;10.70;9.90;;;8.50;99.90;;;;;;5090687;28;20940;-72
2023/03/26 09:56:40;;;;;;;12.63;10.50;;;8.70;99.90;;;;;;5089062;28;20461;-72
2023/03/26 09:59:33;;;;;;;15.93;10.70;;;8.60;99.90;;;;;;5090382;28;20461;-72
2023/03/26 10:02:16;;;;;;;10.53;9.77;;;8.70;99.90;;;;;;5089880;28;20469;-71
2023/03/26 10:05:03;;;;;;;10.67;9.97;;;8.80;99.90;;;;;;5088531;28;20462;-72
2023/03/26 10:08:00;;;;;;;13.73;10.90;;;8.70;99.90;;;;;;5099962;28;20461;-72
2023/03/26 10:10:37;;;;;;;11.67;10.70;;;8.90;99.90;;;;;;5092119;28;20501;-72
2023/03/26 10:13:24;;;;;;;12.53;11.57;;;8.80;99.90;;;;;;5091271;28;20473;-71
2023/03/26 10:16:02;;;;;;;13.30;11.50;;;8.80;99.90;;;;;;5086936;28;20453;-72
2023/03/26 10:18:39;;;;;;;12.30;10.93;;;8.80;99.90;;;;;;5087740;28;20462;-71
2023/03/26 10:21:15;;;;;;;11.40;10.47;;;8.80;99.90;;;;;;5088836;28;20862;-71
2023/03/26 10:24:01;;;;;;;11.07;9.93;;;8.80;99.90;;;;;;5090844;28;20492;-71
2023/03/26 10:26:38;;;;;;;9.73;9.13;;;8.70;99.90;;;;;;5095879;28;20496;-71
2023/03/26 10:29:26;;;;;;;10.30;9.60;;;8.80;99.90;;;;;;5097901;28;20629;-71
2023/03/26 10:32:03;;;;;;;10.33;9.40;;;8.90;99.90;;;;;;5088979;28;20805;-70
2023/03/26 10:34:44;;;;;;;8.67;8.07;;;8.80;99.90;;;;;;5091988;28;20818;-70
2023/03/26 10:37:21;;;;;;;9.10;8.40;;;8.80;99.90;;;;;;5085836;28;20519;-70
2023/03/26 10:40:05;;;;;;;9.13;8.43;;;8.70;99.90;;;;;;5089751;28;20465;-70
2023/03/26 10:42:59;;;;;;;10.20;9.30;;;9.00;99.90;;;;;;5089717;28;21005;-69
2023/03/26 10:45:40;;;;;;;9.30;8.70;;;9.10;99.90;;;;;;5085752;28;21402;-70
2023/03/26 10:48:25;;;;;;;10.23;8.70;;;9.10;99.90;;;;;;5085878;28;20542;-69
2023/03/26 10:51:01;;;;;;;9.00;8.20;;;9.00;99.90;;;;;;5094767;28;21080;-68
2023/03/26 10:53:39;;;;;;;10.13;9.30;;;8.90;99.90;;;;;;5094960;28;20580;-69
2023/03/26 10:56:13;;;;;;;9.73;9.03;;;9.00;99.90;;;;;;5091508;28;20994;-69
2023/03/26 10:58:40;;;;;;;9.57;9.17;;;9.00;99.90;;;;;;5087200;28;21041;-69
2023/03/26 11:01:15;;;;;;;10.23;9.17;;;8.90;99.90;;;;;;5091669;28;20468;-69
2023/03/26 11:03:53;;;;;;;10.30;9.50;;;9.00;99.90;;;;;;5087635;28;20469;-70
2023/03/26 11:06:41;;;;;;;11.50;10.60;;;9.10;99.90;;;;;;5087691;28;20460;-69
2023/03/26 11:09:21;;;;;;;11.70;10.90;;;8.90;99.90;;;;;;5091332;28;20453;-69
2023/03/26 11:11:56;;;;;;;11.50;10.40;;;9.00;99.90;;;;;;5092610;28;20545;-70
2023/03/26 11:14:27;;;;;;;14.23;10.70;;;9.10;99.90;;;;;;5094247;28;20458;-70
2023/03/26 11:17:03;;;;;;;11.40;10.60;;;9.10;99.90;;;;;;5094374;28;20461;-69
2023/03/26 11:19:37;;;;;;;10.90;10.10;;;9.00;99.90;;;;;;5090598;28;20474;-69
2023/03/26 11:22:17;;;;;;;11.27;10.57;;;9.20;99.90;;;;;;5092717;28;21335;-70
2023/03/26 11:25:13;;;;;;;11.50;10.43;;;9.30;99.90;;;;;;5090889;28;20465;-70
2023/03/26 11:27:50;;;;;;;12.23;10.57;;;9.50;99.90;;;;;;5098220;28;20457;-69
2023/03/26 11:30:33;;;;;;;13.90;12.30;;;9.60;99.90;;;;;;5091773;28;20533;-70
2023/03/26 11:33:03;;;;;;;13.10;12.07;;;9.30;99.90;;;;;;5093463;28;20461;-70
2023/03/26 11:35:33;;;;;;;13.07;12.33;;;9.20;99.90;;;;;;5095652;28;20466;-70
2023/03/26 11:38:04;;;;;;;14.47;13.03;;;9.10;99.90;;;;;;5089257;28;20460;-71
2023/03/26 11:40:36;;;;;;;13.97;13.07;;;8.90;99.90;;;;;;5095763;28;20479;-71
2023/03/26 11:43:07;;;;;;;15.97;14.30;;;8.90;99.90;;;;;;5092699;28;20512;-70
2023/03/26 11:45:37;;;;;;;15.40;14.50;;;9.00;99.90;;;;;;5099598;28;20539;-70
2023/03/26 11:48:08;;;;;;;15.10;14.10;;;8.90;99.90;;;;;;5092568;28;20465;-70
2023/03/26 11:50:39;;;;;;;14.60;13.43;;;8.90;99.90;;;;;;5088977;28;20497;-70
2023/03/26 11:53:12;;;;;;;14.87;13.40;;;8.90;99.90;;;;;;5091752;28;20469;-71
2023/03/26 11:55:46;;;;;;;13.40;12.50;;;8.80;99.90;;;;;;5090350;28;20472;-70
2023/03/26 11:58:26;;;;;;;14.07;12.87;;;8.90;99.90;;;;;;5089755;28;20472;-69
2023/03/26 12:00:54;;;;;;;12.87;12.07;;;8.90;99.90;;;;;;5091250;28;20822;-72
2023/03/26 12:03:21;;;;;;;13.20;12.20;;;8.90;99.90;;;;;;5086624;28;21041;-70
2023/03/26 12:05:50;;;;;;;12.60;11.70;;;9.00;99.90;;;;;;5096165;28;20461;-71
2023/03/26 12:08:26;;;;;;;12.60;11.83;;;9.20;99.90;;;;;;5096138;28;20457;-70
2023/03/26 12:11:04;;;;;;;11.70;10.90;;;9.40;99.90;;;;;;5089613;28;20497;-70
2023/03/26 12:13:36;;;;;;;12.03;11.20;;;9.90;99.90;;;;;;5096407;28;20453;-72
2023/03/26 12:16:11;;;;;;;11.53;10.50;;;9.80;99.90;;;;;;5092117;28;20465;-72
2023/03/26 12:18:42;;;;;;;11.53;10.53;;;9.60;99.90;;;;;;5092558;28;20940;-69
2023/03/26 12:21:11;;;;;;;12.30;10.00;;;9.60;99.90;;;;;;5101705;28;20708;-71
2023/03/26 12:23:44;;;;;;;11.23;10.37;;;10.10;99.90;;;;;;5101407;28;20461;-69
2023/03/26 12:26:16;;;;;;;11.73;10.73;;;10.00;99.90;;;;;;5097288;28;20893;-70
2023/03/26 12:28:48;;;;;;;9.97;9.37;;;9.90;99.90;;;;;;5093127;28;20530;-71
2023/03/26 12:31:17;;;;;;;11.27;10.57;;;10.00;99.90;;;;;;5091558;28;20520;-70
2023/03/26 12:33:44;;;;;;;10.40;9.60;;;10.00;99.90;;;;;;5092417;28;20942;-71
2023/03/26 12:36:25;;;;;;;10.00;9.40;;;10.10;99.90;;;;;;5089156;28;20469;-70
2023/03/26 12:38:52;;;;;;;10.27;9.47;;;10.10;99.90;;;;;;5096025;28;20467;-71
2023/03/26 12:41:32;;;;;;;11.60;9.73;;;10.10;99.90;;;;;;5097180;28;20896;-70
2023/03/26 12:44:21;;;;;;;11.57;8.10;;;10.20;99.90;;;;;;5093378;28;20526;-71
2023/03/26 12:46:48;;;;;;;9.60;9.00;;;10.20;99.90;;;;;;5091893;28;20453;-69
2023/03/26 12:49:15;;;;;;;9.93;8.93;;;10.10;99.90;;;;;;5089844;28;20473;-70
2023/03/26 12:51:47;;;;;;;10.10;9.30;;;10.10;99.90;;;;;;5096942;28;20529;-70
2023/03/26 12:54:32;;;;;;;8.73;8.23;;;10.10;99.90;;;;;;5101060;28;20470;-70
2023/03/26 12:57:18;;;;;;;10.17;9.33;;;9.80;99.90;;;;;;5094687;28;20927;-71
2023/03/26 13:00:13;;;;;;;10.53;9.67;;;9.80;99.90;;;;;;5089466;28;20524;-70
2023/03/26 13:03:01;;;;;;;11.00;10.20;;;9.70;99.90;;;;;;5072608;28;20468;-71
2023/03/26 13:05:38;;;;;;;9.80;9.30;;;9.60;99.90;;;;;;5092397;28;20518;-71
2023/03/26 13:08:25;;;;;;;11.17;9.93;;;9.70;99.90;;;;;;5093705;28;20461;-72
2023/03/26 13:11:00;;;;;;;9.83;8.80;;;9.60;99.90;;;;;;5089484;28;20891;-71
2023/03/26 13:13:55;;;;;;;8.60;8.10;;;9.80;99.90;;;;;;5090352;28;20465;-70